createdAt,value
2023-03-31T00:00:04.615Z,1014.09
2023-03-31T00:05:03.395Z,1014.17
2023-03-31T00:10:17.010Z,1014.2
2023-03-31T00:15:03.319Z,1014.33
2023-03-31T00:20:04.460Z,1014.21
2023-03-31T00:25:03.260Z,1014.38
2023-03-31T00:30:04.520Z,1014.37
2023-03-31T00:35:03.349Z,1014.37
2023-03-31T00:40:04.359Z,1014.41
2023-03-31T00:45:03.245Z,1014.39
2023-03-31T00:50:04.501Z,1014.33
2023-03-31T00:55:03.310Z,1014.37
2023-03-31T01:00:04.540Z,1014.35
2023-03-31T01:05:03.129Z,1014.32
2023-03-31T01:10:04.638Z,1014.37
2023-03-31T01:15:03.286Z,1014.4
2023-03-31T01:20:09.382Z,1014.41
2023-03-31T01:25:03.310Z,1014.22
2023-03-31T01:30:04.644Z,1014.14
2023-03-31T01:35:03.464Z,1014.1
2023-03-31T01:40:04.408Z,1014.04
2023-03-31T01:45:03.245Z,1013.93
2023-03-31T01:50:04.775Z,1013.93
2023-03-31T01:55:03.309Z,1013.95
2023-03-31T02:00:04.490Z,1013.94
2023-03-31T02:05:03.137Z,1013.94
2023-03-31T02:10:05.297Z,1013.94
2023-03-31T02:15:03.225Z,1013.94
2023-03-31T02:20:04.360Z,1013.99
2023-03-31T02:25:03.339Z,1014.0
2023-03-31T02:30:05.003Z,1014.0
2023-03-31T02:35:03.506Z,1013.96
2023-03-31T02:40:04.317Z,1014.05
2023-03-31T02:45:03.211Z,1014.01
2023-03-31T02:50:04.326Z,1013.99
2023-03-31T02:55:03.331Z,1013.98
2023-03-31T03:00:04.397Z,1013.92
2023-03-31T03:05:03.388Z,1013.98
2023-03-31T03:10:04.509Z,1014.07
2023-03-31T03:15:03.241Z,1014.05
2023-03-31T03:20:04.334Z,1014.07
2023-03-31T03:25:03.259Z,1014.1
2023-03-31T03:30:04.456Z,1014.14
2023-03-31T03:35:03.312Z,1014.15
2023-03-31T03:40:04.352Z,1014.14
2023-03-31T03:45:03.147Z,1014.15
2023-03-31T03:50:04.397Z,1014.07
2023-03-31T03:55:03.364Z,1013.97
2023-03-31T04:00:04.456Z,1013.86
2023-03-31T04:05:03.536Z,1013.81
2023-03-31T04:10:09.475Z,1013.76
2023-03-31T04:15:03.419Z,1013.76
2023-03-31T04:20:04.241Z,1013.72
2023-03-31T04:25:03.188Z,1013.71
2023-03-31T04:30:04.369Z,1013.65
2023-03-31T04:35:04.318Z,1013.7
2023-03-31T04:40:04.459Z,1013.7
2023-03-31T04:45:03.276Z,1013.66
2023-03-31T04:50:04.305Z,1013.68
2023-03-31T04:55:03.192Z,1013.64
2023-03-31T05:00:04.337Z,1013.56
2023-03-31T05:05:03.267Z,1013.48
2023-03-31T05:10:04.166Z,1013.53
2023-03-31T05:15:03.234Z,1013.46
2023-03-31T05:20:04.406Z,1013.41
2023-03-31T05:25:03.227Z,1013.44
2023-03-31T05:30:04.314Z,1013.46
2023-03-31T05:35:03.380Z,1013.44
2023-03-31T05:40:04.189Z,1013.47
2023-03-31T05:45:03.195Z,1013.46
2023-03-31T05:50:04.290Z,1013.42
2023-03-31T05:55:03.292Z,1013.4
2023-03-31T06:00:04.088Z,1013.47
2023-03-31T06:05:03.320Z,1013.48
2023-03-31T06:10:04.193Z,1013.5
2023-03-31T06:15:03.239Z,1013.5
2023-03-31T06:20:13.085Z,1013.4
2023-03-31T06:25:04.248Z,1013.44
2023-03-31T06:30:04.475Z,1013.41
2023-03-31T06:35:03.384Z,1013.32
2023-03-31T06:40:04.438Z,1013.29
2023-03-31T06:45:03.429Z,1013.22
2023-03-31T06:50:04.331Z,1013.21
2023-03-31T06:55:03.256Z,1013.17
2023-03-31T07:00:04.357Z,1013.11
2023-03-31T07:05:03.275Z,1013.07
2023-03-31T07:10:04.296Z,1013.11
2023-03-31T07:15:03.316Z,1013.1
2023-03-31T07:20:04.217Z,1013.12
2023-03-31T07:25:03.339Z,1013.21
2023-03-31T07:30:04.309Z,1013.17
2023-03-31T07:35:03.312Z,1013.2
2023-03-31T07:40:04.405Z,1013.25
2023-03-31T07:45:03.099Z,1013.3
2023-03-31T07:50:04.387Z,1013.32
2023-03-31T07:55:03.368Z,1013.31
2023-03-31T08:00:04.312Z,1013.37
2023-03-31T08:05:03.285Z,1013.45
2023-03-31T08:10:05.166Z,1013.44
2023-03-31T08:15:03.266Z,1013.51
2023-03-31T08:20:07.100Z,1013.6
2023-03-31T08:25:03.215Z,1013.75
2023-03-31T08:30:04.244Z,1013.8
2023-03-31T08:35:03.388Z,1013.84
2023-03-31T08:40:04.405Z,1013.91
2023-03-31T08:45:03.309Z,1014.02
2023-03-31T08:50:04.249Z,1014.09
2023-03-31T08:55:03.191Z,1014.17
2023-03-31T09:00:04.300Z,1014.26
2023-03-31T09:05:03.307Z,1014.39
2023-03-31T09:10:04.512Z,1014.44
2023-03-31T09:15:03.356Z,1014.49
2023-03-31T09:20:04.235Z,1014.48
2023-03-31T09:25:03.276Z,1014.52
2023-03-31T09:30:04.416Z,1014.59
2023-03-31T09:35:03.342Z,1014.68
2023-03-31T09:40:04.375Z,1014.75
2023-03-31T09:45:03.169Z,1014.87
2023-03-31T09:50:04.476Z,1014.95
2023-03-31T09:55:03.244Z,1014.97
2023-03-31T10:00:06.294Z,1014.99
2023-03-31T10:05:03.279Z,1015.12
2023-03-31T10:10:04.354Z,1015.23
2023-03-31T10:15:03.173Z,1015.31
2023-03-31T10:20:04.257Z,1015.38
2023-03-31T10:25:03.262Z,1015.45
2023-03-31T10:30:04.268Z,1015.5
2023-03-31T10:35:03.440Z,1015.56
2023-03-31T10:40:04.472Z,1015.63
2023-03-31T10:45:03.190Z,1015.69
2023-03-31T10:50:04.545Z,1015.73
2023-03-31T10:55:03.256Z,1015.84
2023-03-31T11:00:04.100Z,1015.94
2023-03-31T11:05:03.275Z,1015.94
2023-03-31T11:10:04.367Z,1015.96
2023-03-31T11:15:03.417Z,1015.97
2023-03-31T11:20:04.217Z,1016.06
2023-03-31T11:25:03.284Z,1016.13
2023-03-31T11:30:04.320Z,1016.16
2023-03-31T11:35:03.260Z,1016.22
2023-03-31T11:40:04.268Z,1016.3
2023-03-31T11:45:03.585Z,1016.32
2023-03-31T11:50:05.206Z,1016.39
2023-03-31T11:55:03.531Z,1016.45
2023-03-31T12:00:04.294Z,1016.48
2023-03-31T12:05:03.210Z,1016.51
2023-03-31T12:10:04.438Z,1016.51
2023-03-31T12:15:03.304Z,1016.58
2023-03-31T12:20:04.238Z,1016.58
2023-03-31T12:25:03.285Z,1016.61
2023-03-31T12:30:04.226Z,1016.54
2023-03-31T12:35:03.330Z,1016.52
2023-03-31T12:40:04.336Z,1016.5
2023-03-31T12:45:03.126Z,1016.45
2023-03-31T12:50:04.170Z,1016.45
2023-03-31T12:55:03.203Z,1016.4
2023-03-31T13:00:04.309Z,1016.38
2023-03-31T13:05:03.311Z,1016.36
2023-03-31T13:10:04.382Z,1016.38
2023-03-31T13:15:03.329Z,1016.38
2023-03-31T13:20:04.227Z,1016.3
2023-03-31T13:25:03.215Z,1016.27
2023-03-31T13:30:04.360Z,1016.32
2023-03-31T13:35:03.250Z,1016.38
2023-03-31T13:40:04.347Z,1016.39
2023-03-31T13:45:03.379Z,1016.41
2023-03-31T13:50:04.262Z,1016.48
2023-03-31T13:55:03.290Z,1016.44
2023-03-31T14:00:04.214Z,1016.46
2023-03-31T14:05:03.320Z,1016.46
2023-03-31T14:10:04.287Z,1016.41
2023-03-31T14:15:03.297Z,1016.38
2023-03-31T14:20:04.404Z,1016.36
2023-03-31T14:25:03.276Z,1016.3
2023-03-31T14:30:04.242Z,1016.28
2023-03-31T14:35:03.324Z,1016.16
2023-03-31T14:40:04.478Z,1016.12
2023-03-31T14:45:03.389Z,1016.07
2023-03-31T14:50:05.821Z,1016.01
2023-03-31T14:55:03.271Z,1016.03
2023-03-31T15:00:04.237Z,1016.03
2023-03-31T15:05:03.293Z,1015.97
2023-03-31T15:10:04.212Z,1015.97
2023-03-31T15:15:03.290Z,1015.86
2023-03-31T15:20:04.357Z,1015.83
2023-03-31T15:25:04.182Z,1015.84
2023-03-31T15:30:04.353Z,1015.79
2023-03-31T15:35:15.213Z,1015.68
2023-03-31T15:40:04.512Z,1015.67
2023-03-31T15:45:03.384Z,1015.63
2023-03-31T15:50:04.361Z,1015.6
2023-03-31T15:55:03.206Z,1015.54
2023-03-31T16:00:04.254Z,1015.48
2023-03-31T16:05:04.528Z,1015.5
2023-03-31T16:10:04.393Z,1015.43
2023-03-31T16:15:03.314Z,1015.4
2023-03-31T16:20:04.247Z,1015.4
2023-03-31T16:25:03.291Z,1015.39
2023-03-31T16:30:04.285Z,1015.32
2023-03-31T16:35:03.217Z,1015.18
2023-03-31T16:40:04.404Z,1015.06
2023-03-31T16:45:13.477Z,1015.0
2023-03-31T16:50:04.242Z,1014.92
2023-03-31T16:55:03.291Z,1014.86
2023-03-31T17:00:04.211Z,1014.77
2023-03-31T17:10:04.349Z,1014.65
2023-03-31T17:15:03.294Z,1014.58
2023-03-31T17:20:06.038Z,1014.53
2023-03-31T17:25:03.271Z,1014.46
2023-03-31T17:35:03.221Z,1014.46
2023-03-31T17:40:04.284Z,1014.46
2023-03-31T17:45:03.278Z,1014.43
2023-03-31T17:50:04.457Z,1014.31
2023-03-31T17:55:03.240Z,1014.37
2023-03-31T18:00:04.253Z,1014.35
2023-03-31T18:05:03.254Z,1014.31
2023-03-31T18:10:04.309Z,1014.32
2023-03-31T18:15:03.279Z,1014.31
2023-03-31T18:20:04.190Z,1014.35
2023-03-31T18:25:03.279Z,1014.26
2023-03-31T18:30:04.378Z,1014.24
2023-03-31T18:35:03.259Z,1014.21
2023-03-31T18:40:04.354Z,1014.05
2023-03-31T18:45:03.269Z,1014.01
2023-03-31T18:50:04.193Z,1013.95
2023-03-31T18:55:03.188Z,1013.88
2023-03-31T19:00:04.243Z,1013.86
2023-03-31T19:05:03.465Z,1013.79
2023-03-31T19:10:04.441Z,1013.73
2023-03-31T19:15:03.302Z,1013.68
2023-03-31T19:20:04.431Z,1013.62
2023-03-31T19:25:03.203Z,1013.53
2023-03-31T19:30:05.213Z,1013.52
2023-03-31T19:35:03.301Z,1013.47
2023-03-31T19:40:04.295Z,1013.41
2023-03-31T19:45:03.330Z,1013.46
2023-03-31T19:50:04.491Z,1013.43
2023-03-31T19:55:03.601Z,1013.47
2023-03-31T20:00:06.278Z,1013.43
2023-03-31T20:05:03.213Z,1013.39
2023-03-31T20:10:04.317Z,1013.36
2023-03-31T20:15:03.341Z,1013.31
2023-03-31T20:20:04.342Z,1013.25
2023-03-31T20:25:03.197Z,1013.2
2023-03-31T20:30:04.261Z,1013.14
2023-03-31T20:35:03.250Z,1013.12
2023-03-31T20:40:04.360Z,1013.04
2023-03-31T20:45:03.334Z,1013.02
2023-03-31T20:50:04.220Z,1012.96
2023-03-31T20:55:03.171Z,1012.93
2023-03-31T21:00:04.303Z,1012.94
2023-03-31T21:05:03.263Z,1012.97
2023-03-31T21:10:04.359Z,1012.92
2023-03-31T21:15:03.318Z,1012.92
2023-03-31T21:20:04.265Z,1012.93
2023-03-31T21:25:03.375Z,1012.96
2023-03-31T21:30:04.342Z,1012.97
2023-03-31T21:35:03.447Z,1012.95
2023-03-31T21:40:04.495Z,1012.98
2023-03-31T21:45:03.377Z,1012.97
2023-03-31T21:50:04.274Z,1012.99
2023-03-31T21:55:03.128Z,1012.98
2023-03-31T22:00:05.383Z,1012.99
2023-03-31T22:05:03.267Z,1012.99
2023-03-31T22:10:04.595Z,1013.06
2023-03-31T22:15:03.280Z,1013.14
2023-03-31T22:20:04.511Z,1013.16
2023-03-31T22:25:03.212Z,1013.16
2023-03-31T22:30:04.401Z,1013.2
2023-03-31T22:35:03.255Z,1013.17
2023-03-31T22:40:04.523Z,1013.17
2023-03-31T22:45:04.479Z,1013.15
2023-03-31T22:50:06.179Z,1013.18
2023-03-31T22:55:03.387Z,1013.15
2023-03-31T23:00:04.361Z,1013.1
2023-03-31T23:05:03.276Z,1013.08
2023-03-31T23:10:04.329Z,1013.19
2023-03-31T23:15:03.370Z,1013.3
2023-03-31T23:20:04.540Z,1013.37
2023-03-31T23:25:04.691Z,1013.45
2023-03-31T23:30:06.285Z,1013.5
2023-03-31T23:35:04.213Z,1013.58
2023-03-31T23:40:06.194Z,1013.54
2023-03-31T23:45:03.481Z,1013.53
2023-03-31T23:50:04.387Z,1013.54
2023-03-31T23:55:03.240Z,1013.67
